sensor_id;sensor_type;location;lat;lon;timestamp;P1;durP1;ratioP1;P2;durP2;ratioP2
15451;SDS011;7827;53.594;9.938;2023-04-09T00:00:00;93.28;;;54.10;;
15451;SDS011;7827;53.594;9.938;2023-04-09T00:02:37;100.23;;;58.10;;
15451;SDS011;7827;53.594;9.938;2023-04-09T00:05:08;94.20;;;57.83;;
15451;SDS011;7827;53.594;9.938;2023-04-09T00:07:36;96.27;;;58.30;;
15451;SDS011;7827;53.594;9.938;2023-04-09T00:10:05;98.30;;;57.77;;
15451;SDS011;7827;53.594;9.938;2023-04-09T00:12:34;95.03;;;57.63;;
15451;SDS011;7827;53.594;9.938;2023-04-09T00:15:03;93.40;;;56.78;;
15451;SDS011;7827;53.594;9.938;2023-04-09T00:17:38;104.05;;;58.47;;
15451;SDS011;7827;53.594;9.938;2023-04-09T00:20:08;94.53;;;56.03;;
15451;SDS011;7827;53.594;9.938;2023-04-09T00:22:37;103.65;;;58.20;;
15451;SDS011;7827;53.594;9.938;2023-04-09T00:25:06;107.77;;;58.37;;
15451;SDS011;7827;53.594;9.938;2023-04-09T00:27:35;98.70;;;59.60;;
15451;SDS011;7827;53.594;9.938;2023-04-09T00:30:03;102.10;;;59.03;;
15451;SDS011;7827;53.594;9.938;2023-04-09T00:32:33;98.37;;;57.10;;
15451;SDS011;7827;53.594;9.938;2023-04-09T00:35:01;100.97;;;56.37;;
15451;SDS011;7827;53.594;9.938;2023-04-09T00:37:32;101.30;;;57.77;;
15451;SDS011;7827;53.594;9.938;2023-04-09T00:40:00;111.97;;;60.30;;
15451;SDS011;7827;53.594;9.938;2023-04-09T00:42:30;100.70;;;57.37;;
15451;SDS011;7827;53.594;9.938;2023-04-09T00:44:59;104.17;;;58.70;;
15451;SDS011;7827;53.594;9.938;2023-04-09T00:47:28;96.63;;;56.13;;
15451;SDS011;7827;53.594;9.938;2023-04-09T00:49:57;99.50;;;56.30;;
15451;SDS011;7827;53.594;9.938;2023-04-09T00:52:28;107.33;;;56.00;;
15451;SDS011;7827;53.594;9.938;2023-04-09T00:54:59;101.30;;;56.50;;
15451;SDS011;7827;53.594;9.938;2023-04-09T00:57:31;108.83;;;59.10;;
15451;SDS011;7827;53.594;9.938;2023-04-09T00:59:59;114.53;;;60.50;;
15451;SDS011;7827;53.594;9.938;2023-04-09T01:02:27;112.43;;;59.07;;
15451;SDS011;7827;53.594;9.938;2023-04-09T01:04:57;108.33;;;57.57;;
15451;SDS011;7827;53.594;9.938;2023-04-09T01:07:29;102.77;;;57.80;;
15451;SDS011;7827;53.594;9.938;2023-04-09T01:10:17;104.73;;;61.00;;
15451;SDS011;7827;53.594;9.938;2023-04-09T01:12:59;98.93;;;56.33;;
15451;SDS011;7827;53.594;9.938;2023-04-09T01:15:37;103.20;;;57.03;;
15451;SDS011;7827;53.594;9.938;2023-04-09T01:18:14;108.47;;;55.87;;
15451;SDS011;7827;53.594;9.938;2023-04-09T01:20:52;97.90;;;53.73;;
15451;SDS011;7827;53.594;9.938;2023-04-09T01:23:28;99.13;;;54.67;;
15451;SDS011;7827;53.594;9.938;2023-04-09T01:26:20;100.87;;;52.93;;
15451;SDS011;7827;53.594;9.938;2023-04-09T01:29:06;97.73;;;54.20;;
15451;SDS011;7827;53.594;9.938;2023-04-09T01:31:36;106.73;;;55.43;;
15451;SDS011;7827;53.594;9.938;2023-04-09T01:34:08;101.93;;;55.10;;
15451;SDS011;7827;53.594;9.938;2023-04-09T01:36:38;114.97;;;56.63;;
15451;SDS011;7827;53.594;9.938;2023-04-09T01:39:09;99.07;;;51.60;;
15451;SDS011;7827;53.594;9.938;2023-04-09T01:41:38;101.57;;;51.47;;
15451;SDS011;7827;53.594;9.938;2023-04-09T01:44:09;108.53;;;55.07;;
15451;SDS011;7827;53.594;9.938;2023-04-09T01:46:39;108.87;;;53.77;;
15451;SDS011;7827;53.594;9.938;2023-04-09T01:49:08;110.83;;;53.43;;
15451;SDS011;7827;53.594;9.938;2023-04-09T01:51:37;95.67;;;52.90;;
15451;SDS011;7827;53.594;9.938;2023-04-09T01:54:06;106.87;;;53.93;;
15451;SDS011;7827;53.594;9.938;2023-04-09T01:56:41;113.77;;;54.43;;
15451;SDS011;7827;53.594;9.938;2023-04-09T01:59:12;109.97;;;52.67;;
15451;SDS011;7827;53.594;9.938;2023-04-09T02:01:43;104.30;;;53.53;;
15451;SDS011;7827;53.594;9.938;2023-04-09T02:04:15;114.13;;;54.23;;
15451;SDS011;7827;53.594;9.938;2023-04-09T02:06:52;108.83;;;56.93;;
15451;SDS011;7827;53.594;9.938;2023-04-09T02:09:29;108.47;;;53.93;;
15451;SDS011;7827;53.594;9.938;2023-04-09T02:12:03;109.77;;;52.97;;
15451;SDS011;7827;53.594;9.938;2023-04-09T02:14:38;106.23;;;53.63;;
15451;SDS011;7827;53.594;9.938;2023-04-09T02:17:07;110.83;;;53.60;;
15451;SDS011;7827;53.594;9.938;2023-04-09T02:19:39;103.13;;;54.20;;
15451;SDS011;7827;53.594;9.938;2023-04-09T02:22:09;106.87;;;53.47;;
15451;SDS011;7827;53.594;9.938;2023-04-09T02:24:39;109.93;;;54.03;;
15451;SDS011;7827;53.594;9.938;2023-04-09T02:27:07;103.13;;;50.20;;
15451;SDS011;7827;53.594;9.938;2023-04-09T02:29:38;103.67;;;52.20;;
15451;SDS011;7827;53.594;9.938;2023-04-09T02:32:07;101.47;;;51.43;;
15451;SDS011;7827;53.594;9.938;2023-04-09T02:34:35;110.27;;;52.57;;
15451;SDS011;7827;53.594;9.938;2023-04-09T02:37:04;99.43;;;49.90;;
15451;SDS011;7827;53.594;9.938;2023-04-09T02:39:32;113.87;;;56.87;;
15451;SDS011;7827;53.594;9.938;2023-04-09T02:42:01;113.43;;;56.43;;
15451;SDS011;7827;53.594;9.938;2023-04-09T02:44:29;110.50;;;54.93;;
15451;SDS011;7827;53.594;9.938;2023-04-09T02:46:58;119.33;;;55.87;;
15451;SDS011;7827;53.594;9.938;2023-04-09T02:49:27;102.87;;;52.77;;
15451;SDS011;7827;53.594;9.938;2023-04-09T02:51:55;106.70;;;52.27;;
15451;SDS011;7827;53.594;9.938;2023-04-09T02:54:23;113.60;;;54.40;;
15451;SDS011;7827;53.594;9.938;2023-04-09T02:56:52;115.70;;;56.03;;
15451;SDS011;7827;53.594;9.938;2023-04-09T02:59:20;112.63;;;52.37;;
15451;SDS011;7827;53.594;9.938;2023-04-09T03:01:48;114.57;;;54.27;;
15451;SDS011;7827;53.594;9.938;2023-04-09T03:04:18;106.63;;;51.40;;
15451;SDS011;7827;53.594;9.938;2023-04-09T03:06:46;121.47;;;55.17;;
15451;SDS011;7827;53.594;9.938;2023-04-09T03:09:16;110.07;;;52.67;;
15451;SDS011;7827;53.594;9.938;2023-04-09T03:11:45;119.77;;;54.57;;
15451;SDS011;7827;53.594;9.938;2023-04-09T03:14:13;127.83;;;56.97;;
15451;SDS011;7827;53.594;9.938;2023-04-09T03:16:43;132.63;;;55.03;;
15451;SDS011;7827;53.594;9.938;2023-04-09T03:19:11;120.27;;;52.47;;
15451;SDS011;7827;53.594;9.938;2023-04-09T03:21:41;139.70;;;56.83;;
15451;SDS011;7827;53.594;9.938;2023-04-09T03:24:09;140.70;;;55.53;;
15451;SDS011;7827;53.594;9.938;2023-04-09T03:26:38;132.87;;;57.83;;
15451;SDS011;7827;53.594;9.938;2023-04-09T03:29:07;135.33;;;56.83;;
15451;SDS011;7827;53.594;9.938;2023-04-09T03:31:36;138.13;;;57.27;;
15451;SDS011;7827;53.594;9.938;2023-04-09T03:34:05;140.90;;;59.63;;
15451;SDS011;7827;53.594;9.938;2023-04-09T03:36:33;131.90;;;56.03;;
15451;SDS011;7827;53.594;9.938;2023-04-09T03:39:09;146.97;;;58.47;;
15451;SDS011;7827;53.594;9.938;2023-04-09T03:41:40;132.10;;;56.80;;
15451;SDS011;7827;53.594;9.938;2023-04-09T03:44:12;138.37;;;57.50;;
15451;SDS011;7827;53.594;9.938;2023-04-09T03:47:07;134.80;;;56.10;;
15451;SDS011;7827;53.594;9.938;2023-04-09T03:49:37;135.47;;;56.47;;
15451;SDS011;7827;53.594;9.938;2023-04-09T03:52:26;132.13;;;56.00;;
15451;SDS011;7827;53.594;9.938;2023-04-09T03:55:03;131.57;;;54.40;;
15451;SDS011;7827;53.594;9.938;2023-04-09T03:57:33;121.93;;;53.90;;
15451;SDS011;7827;53.594;9.938;2023-04-09T04:00:03;118.83;;;52.63;;
15451;SDS011;7827;53.594;9.938;2023-04-09T04:02:49;126.63;;;53.07;;
15451;SDS011;7827;53.594;9.938;2023-04-09T04:05:37;124.83;;;55.33;;
15451;SDS011;7827;53.594;9.938;2023-04-09T04:08:08;124.67;;;52.80;;
15451;SDS011;7827;53.594;9.938;2023-04-09T04:10:38;126.77;;;54.53;;
15451;SDS011;7827;53.594;9.938;2023-04-09T04:13:07;122.67;;;53.30;;
15451;SDS011;7827;53.594;9.938;2023-04-09T04:15:45;123.00;;;54.67;;
15451;SDS011;7827;53.594;9.938;2023-04-09T04:18:15;110.33;;;52.53;;
15451;SDS011;7827;53.594;9.938;2023-04-09T04:20:47;113.77;;;51.27;;
15451;SDS011;7827;53.594;9.938;2023-04-09T04:23:16;108.57;;;49.43;;
15451;SDS011;7827;53.594;9.938;2023-04-09T04:25:52;114.23;;;52.17;;
15451;SDS011;7827;53.594;9.938;2023-04-09T04:28:32;118.40;;;52.33;;
15451;SDS011;7827;53.594;9.938;2023-04-09T04:31:01;116.23;;;50.77;;
15451;SDS011;7827;53.594;9.938;2023-04-09T04:33:34;116.57;;;52.10;;
15451;SDS011;7827;53.594;9.938;2023-04-09T04:36:09;108.00;;;51.37;;
15451;SDS011;7827;53.594;9.938;2023-04-09T04:38:43;114.30;;;50.67;;
15451;SDS011;7827;53.594;9.938;2023-04-09T04:41:23;102.10;;;49.53;;
15451;SDS011;7827;53.594;9.938;2023-04-09T04:44:02;100.87;;;48.67;;
15451;SDS011;7827;53.594;9.938;2023-04-09T04:46:31;105.43;;;50.03;;
15451;SDS011;7827;53.594;9.938;2023-04-09T04:48:59;111.47;;;52.07;;
15451;SDS011;7827;53.594;9.938;2023-04-09T04:51:29;109.43;;;50.70;;
15451;SDS011;7827;53.594;9.938;2023-04-09T04:54:05;111.03;;;51.53;;
15451;SDS011;7827;53.594;9.938;2023-04-09T04:56:35;117.37;;;51.70;;
15451;SDS011;7827;53.594;9.938;2023-04-09T04:59:15;101.90;;;48.60;;
15451;SDS011;7827;53.594;9.938;2023-04-09T05:01:54;106.57;;;49.07;;
15451;SDS011;7827;53.594;9.938;2023-04-09T05:04:24;95.37;;;47.97;;
15451;SDS011;7827;53.594;9.938;2023-04-09T05:06:54;98.23;;;47.10;;
15451;SDS011;7827;53.594;9.938;2023-04-09T05:09:24;91.07;;;45.87;;
15451;SDS011;7827;53.594;9.938;2023-04-09T05:12:03;100.03;;;46.43;;
15451;SDS011;7827;53.594;9.938;2023-04-09T05:14:33;96.23;;;47.13;;
15451;SDS011;7827;53.594;9.938;2023-04-09T05:17:01;99.27;;;46.40;;
15451;SDS011;7827;53.594;9.938;2023-04-09T05:19:39;99.17;;;46.23;;
15451;SDS011;7827;53.594;9.938;2023-04-09T05:22:09;98.80;;;47.50;;
15451;SDS011;7827;53.594;9.938;2023-04-09T05:24:37;89.93;;;45.90;;
15451;SDS011;7827;53.594;9.938;2023-04-09T05:27:09;95.73;;;46.87;;
15451;SDS011;7827;53.594;9.938;2023-04-09T05:29:38;88.50;;;43.97;;
15451;SDS011;7827;53.594;9.938;2023-04-09T05:32:08;98.70;;;46.30;;
15451;SDS011;7827;53.594;9.938;2023-04-09T05:34:38;96.43;;;47.43;;
15451;SDS011;7827;53.594;9.938;2023-04-09T05:37:07;94.83;;;46.17;;
15451;SDS011;7827;53.594;9.938;2023-04-09T05:39:35;95.13;;;45.67;;
15451;SDS011;7827;53.594;9.938;2023-04-09T05:42:04;100.07;;;46.67;;
15451;SDS011;7827;53.594;9.938;2023-04-09T05:44:50;96.67;;;45.87;;
15451;SDS011;7827;53.594;9.938;2023-04-09T05:47:19;92.07;;;45.60;;
15451;SDS011;7827;53.594;9.938;2023-04-09T05:49:59;98.23;;;47.87;;
15451;SDS011;7827;53.594;9.938;2023-04-09T05:52:28;101.57;;;49.90;;
15451;SDS011;7827;53.594;9.938;2023-04-09T05:54:57;107.43;;;50.10;;
15451;SDS011;7827;53.594;9.938;2023-04-09T05:57:37;109.17;;;51.83;;
15451;SDS011;7827;53.594;9.938;2023-04-09T06:00:08;116.13;;;53.33;;
15451;SDS011;7827;53.594;9.938;2023-04-09T06:02:43;99.70;;;47.50;;
15451;SDS011;7827;53.594;9.938;2023-04-09T06:05:13;104.93;;;50.30;;
15451;SDS011;7827;53.594;9.938;2023-04-09T06:07:41;111.47;;;52.00;;
15451;SDS011;7827;53.594;9.938;2023-04-09T06:10:10;112.70;;;52.03;;
15451;SDS011;7827;53.594;9.938;2023-04-09T06:12:38;108.70;;;52.27;;
15451;SDS011;7827;53.594;9.938;2023-04-09T06:15:09;102.80;;;50.37;;
15451;SDS011;7827;53.594;9.938;2023-04-09T06:17:38;115.27;;;53.23;;
15451;SDS011;7827;53.594;9.938;2023-04-09T06:20:06;112.40;;;52.67;;
15451;SDS011;7827;53.594;9.938;2023-04-09T06:22:36;115.33;;;53.83;;
15451;SDS011;7827;53.594;9.938;2023-04-09T06:25:05;103.77;;;49.57;;
15451;SDS011;7827;53.594;9.938;2023-04-09T06:27:34;104.73;;;49.80;;
15451;SDS011;7827;53.594;9.938;2023-04-09T06:30:02;115.30;;;51.50;;
15451;SDS011;7827;53.594;9.938;2023-04-09T06:32:33;114.90;;;49.97;;
15451;SDS011;7827;53.594;9.938;2023-04-09T06:35:19;109.67;;;50.60;;
15451;SDS011;7827;53.594;9.938;2023-04-09T06:37:47;120.53;;;52.73;;
15451;SDS011;7827;53.594;9.938;2023-04-09T06:40:16;115.20;;;52.97;;
15451;SDS011;7827;53.594;9.938;2023-04-09T06:42:48;113.37;;;51.57;;
15451;SDS011;7827;53.594;9.938;2023-04-09T06:45:22;115.13;;;52.23;;
15451;SDS011;7827;53.594;9.938;2023-04-09T06:47:52;115.23;;;53.43;;
15451;SDS011;7827;53.594;9.938;2023-04-09T06:50:20;117.43;;;52.17;;
15451;SDS011;7827;53.594;9.938;2023-04-09T06:52:48;110.13;;;51.00;;
15451;SDS011;7827;53.594;9.938;2023-04-09T06:55:19;111.90;;;50.90;;
15451;SDS011;7827;53.594;9.938;2023-04-09T06:57:47;108.23;;;49.77;;
15451;SDS011;7827;53.594;9.938;2023-04-09T07:00:16;101.77;;;49.40;;
15451;SDS011;7827;53.594;9.938;2023-04-09T07:02:44;104.23;;;50.07;;
15451;SDS011;7827;53.594;9.938;2023-04-09T07:05:14;105.17;;;49.23;;
15451;SDS011;7827;53.594;9.938;2023-04-09T07:07:44;95.17;;;45.00;;
15451;SDS011;7827;53.594;9.938;2023-04-09T07:10:12;100.07;;;47.20;;
15451;SDS011;7827;53.594;9.938;2023-04-09T07:12:41;94.37;;;44.63;;
15451;SDS011;7827;53.594;9.938;2023-04-09T07:15:09;83.37;;;42.90;;
15451;SDS011;7827;53.594;9.938;2023-04-09T07:17:38;90.03;;;46.33;;
15451;SDS011;7827;53.594;9.938;2023-04-09T07:20:06;81.07;;;42.53;;
15451;SDS011;7827;53.594;9.938;2023-04-09T07:22:37;79.87;;;41.63;;
15451;SDS011;7827;53.594;9.938;2023-04-09T07:25:06;77.63;;;40.60;;
15451;SDS011;7827;53.594;9.938;2023-04-09T07:27:35;85.57;;;42.00;;
15451;SDS011;7827;53.594;9.938;2023-04-09T07:30:04;81.53;;;41.33;;
15451;SDS011;7827;53.594;9.938;2023-04-09T07:32:34;82.82;;;41.17;;
15451;SDS011;7827;53.594;9.938;2023-04-09T07:35:04;89.03;;;41.80;;
15451;SDS011;7827;53.594;9.938;2023-04-09T07:37:34;77.47;;;39.37;;
15451;SDS011;7827;53.594;9.938;2023-04-09T07:40:05;73.28;;;38.53;;
15451;SDS011;7827;53.594;9.938;2023-04-09T07:42:35;71.35;;;38.92;;
15451;SDS011;7827;53.594;9.938;2023-04-09T07:45:05;69.70;;;35.83;;
15451;SDS011;7827;53.594;9.938;2023-04-09T07:47:34;67.38;;;36.00;;
15451;SDS011;7827;53.594;9.938;2023-04-09T07:50:03;74.63;;;38.57;;
15451;SDS011;7827;53.594;9.938;2023-04-09T07:52:33;70.50;;;36.90;;
15451;SDS011;7827;53.594;9.938;2023-04-09T07:55:01;70.28;;;37.53;;
15451;SDS011;7827;53.594;9.938;2023-04-09T07:57:31;66.15;;;37.13;;
15451;SDS011;7827;53.594;9.938;2023-04-09T08:00:00;67.57;;;36.60;;
15451;SDS011;7827;53.594;9.938;2023-04-09T08:02:38;69.27;;;37.77;;
15451;SDS011;7827;53.594;9.938;2023-04-09T08:05:07;69.77;;;38.17;;
15451;SDS011;7827;53.594;9.938;2023-04-09T08:07:36;66.93;;;35.60;;
15451;SDS011;7827;53.594;9.938;2023-04-09T08:10:05;62.97;;;35.03;;
15451;SDS011;7827;53.594;9.938;2023-04-09T08:12:40;59.13;;;32.13;;
15451;SDS011;7827;53.594;9.938;2023-04-09T08:15:09;61.43;;;33.63;;
15451;SDS011;7827;53.594;9.938;2023-04-09T08:17:37;62.33;;;33.72;;
15451;SDS011;7827;53.594;9.938;2023-04-09T08:20:06;69.13;;;38.15;;
15451;SDS011;7827;53.594;9.938;2023-04-09T08:22:36;57.17;;;31.00;;
15451;SDS011;7827;53.594;9.938;2023-04-09T08:25:06;56.22;;;30.67;;
15451;SDS011;7827;53.594;9.938;2023-04-09T08:27:35;57.72;;;32.28;;
15451;SDS011;7827;53.594;9.938;2023-04-09T08:30:08;56.20;;;29.93;;
15451;SDS011;7827;53.594;9.938;2023-04-09T08:32:37;59.28;;;31.00;;
15451;SDS011;7827;53.594;9.938;2023-04-09T08:35:06;54.70;;;30.08;;
15451;SDS011;7827;53.594;9.938;2023-04-09T08:37:35;41.65;;;23.83;;
15451;SDS011;7827;53.594;9.938;2023-04-09T08:40:04;37.97;;;23.15;;
15451;SDS011;7827;53.594;9.938;2023-04-09T08:42:35;41.60;;;23.10;;
15451;SDS011;7827;53.594;9.938;2023-04-09T08:45:11;47.42;;;27.10;;
15451;SDS011;7827;53.594;9.938;2023-04-09T08:47:40;46.08;;;26.95;;
15451;SDS011;7827;53.594;9.938;2023-04-09T08:50:11;41.93;;;24.27;;
15451;SDS011;7827;53.594;9.938;2023-04-09T08:52:41;44.03;;;25.08;;
15451;SDS011;7827;53.594;9.938;2023-04-09T08:55:12;49.33;;;26.25;;
15451;SDS011;7827;53.594;9.938;2023-04-09T08:57:41;47.17;;;27.60;;
15451;SDS011;7827;53.594;9.938;2023-04-09T09:00:11;42.20;;;23.80;;
15451;SDS011;7827;53.594;9.938;2023-04-09T09:05:35;37.83;;;22.85;;
15451;SDS011;7827;53.594;9.938;2023-04-09T09:08:06;36.83;;;23.33;;
15451;SDS011;7827;53.594;9.938;2023-04-09T09:10:36;42.05;;;24.25;;
15451;SDS011;7827;53.594;9.938;2023-04-09T09:13:17;44.00;;;26.58;;
15451;SDS011;7827;53.594;9.938;2023-04-09T09:15:50;46.05;;;30.13;;
15451;SDS011;7827;53.594;9.938;2023-04-09T09:18:37;64.28;;;36.30;;
15451;SDS011;7827;53.594;9.938;2023-04-09T09:21:10;55.13;;;33.00;;
15451;SDS011;7827;53.594;9.938;2023-04-09T09:23:39;59.88;;;36.85;;
15451;SDS011;7827;53.594;9.938;2023-04-09T09:26:12;60.17;;;38.38;;
15451;SDS011;7827;53.594;9.938;2023-04-09T09:28:41;62.25;;;40.15;;
15451;SDS011;7827;53.594;9.938;2023-04-09T09:31:11;57.65;;;39.13;;
15451;SDS011;7827;53.594;9.938;2023-04-09T09:33:40;64.80;;;42.28;;
15451;SDS011;7827;53.594;9.938;2023-04-09T09:36:09;63.20;;;42.90;;
15451;SDS011;7827;53.594;9.938;2023-04-09T09:41:27;63.63;;;42.42;;
15451;SDS011;7827;53.594;9.938;2023-04-09T09:43:56;59.83;;;40.00;;
15451;SDS011;7827;53.594;9.938;2023-04-09T09:46:26;57.65;;;40.90;;
15451;SDS011;7827;53.594;9.938;2023-04-09T09:49:00;60.85;;;40.85;;
15451;SDS011;7827;53.594;9.938;2023-04-09T09:51:30;61.17;;;40.33;;
15451;SDS011;7827;53.594;9.938;2023-04-09T09:54:02;55.15;;;37.15;;
15451;SDS011;7827;53.594;9.938;2023-04-09T09:56:34;53.08;;;36.85;;
15451;SDS011;7827;53.594;9.938;2023-04-09T09:59:06;59.70;;;36.75;;
15451;SDS011;7827;53.594;9.938;2023-04-09T10:01:43;52.78;;;36.33;;
15451;SDS011;7827;53.594;9.938;2023-04-09T10:04:14;53.92;;;36.38;;
15451;SDS011;7827;53.594;9.938;2023-04-09T10:06:46;54.65;;;35.20;;
15451;SDS011;7827;53.594;9.938;2023-04-09T10:09:18;50.08;;;32.88;;
15451;SDS011;7827;53.594;9.938;2023-04-09T10:11:54;51.10;;;32.35;;
15451;SDS011;7827;53.594;9.938;2023-04-09T10:14:27;47.92;;;32.25;;
15451;SDS011;7827;53.594;9.938;2023-04-09T10:16:57;46.60;;;31.63;;
15451;SDS011;7827;53.594;9.938;2023-04-09T10:19:26;49.15;;;32.75;;
15451;SDS011;7827;53.594;9.938;2023-04-09T10:21:56;47.03;;;32.22;;
15451;SDS011;7827;53.594;9.938;2023-04-09T10:24:32;47.08;;;32.45;;
15451;SDS011;7827;53.594;9.938;2023-04-09T10:27:08;45.70;;;29.38;;
15451;SDS011;7827;53.594;9.938;2023-04-09T10:29:41;42.90;;;29.33;;
15451;SDS011;7827;53.594;9.938;2023-04-09T10:32:16;46.67;;;30.15;;
15451;SDS011;7827;53.594;9.938;2023-04-09T10:34:48;47.22;;;32.85;;
15451;SDS011;7827;53.594;9.938;2023-04-09T10:37:19;49.15;;;32.65;;
15451;SDS011;7827;53.594;9.938;2023-04-09T10:39:51;52.83;;;32.58;;
15451;SDS011;7827;53.594;9.938;2023-04-09T10:42:22;50.15;;;34.83;;
15451;SDS011;7827;53.594;9.938;2023-04-09T10:45:03;49.92;;;33.85;;
15451;SDS011;7827;53.594;9.938;2023-04-09T10:47:36;44.63;;;31.40;;
15451;SDS011;7827;53.594;9.938;2023-04-09T10:50:15;45.78;;;31.65;;
15451;SDS011;7827;53.594;9.938;2023-04-09T10:52:45;41.58;;;29.23;;
15451;SDS011;7827;53.594;9.938;2023-04-09T10:55:28;44.50;;;30.58;;
15451;SDS011;7827;53.594;9.938;2023-04-09T10:58:02;41.85;;;29.42;;
15451;SDS011;7827;53.594;9.938;2023-04-09T11:00:36;40.72;;;27.75;;
15451;SDS011;7827;53.594;9.938;2023-04-09T11:03:12;39.67;;;27.52;;
15451;SDS011;7827;53.594;9.938;2023-04-09T11:05:51;40.38;;;26.98;;
15451;SDS011;7827;53.594;9.938;2023-04-09T11:08:27;40.42;;;27.88;;
15451;SDS011;7827;53.594;9.938;2023-04-09T11:10:57;36.38;;;25.75;;
15451;SDS011;7827;53.594;9.938;2023-04-09T11:13:27;40.10;;;25.80;;
15451;SDS011;7827;53.594;9.938;2023-04-09T11:15:57;35.45;;;25.40;;
15451;SDS011;7827;53.594;9.938;2023-04-09T11:18:28;38.30;;;25.65;;
15451;SDS011;7827;53.594;9.938;2023-04-09T11:21:00;40.67;;;26.98;;
15451;SDS011;7827;53.594;9.938;2023-04-09T11:23:30;40.70;;;28.15;;
15451;SDS011;7827;53.594;9.938;2023-04-09T11:25:59;39.08;;;26.63;;
15451;SDS011;7827;53.594;9.938;2023-04-09T11:28:28;40.15;;;27.60;;
15451;SDS011;7827;53.594;9.938;2023-04-09T11:30:57;39.05;;;27.52;;
15451;SDS011;7827;53.594;9.938;2023-04-09T11:33:31;38.83;;;27.15;;
15451;SDS011;7827;53.594;9.938;2023-04-09T11:36:00;34.20;;;25.70;;
15451;SDS011;7827;53.594;9.938;2023-04-09T11:38:31;39.65;;;28.60;;
15451;SDS011;7827;53.594;9.938;2023-04-09T11:41:00;40.45;;;26.40;;
15451;SDS011;7827;53.594;9.938;2023-04-09T11:43:28;39.13;;;28.17;;
15451;SDS011;7827;53.594;9.938;2023-04-09T11:45:57;40.78;;;25.35;;
15451;SDS011;7827;53.594;9.938;2023-04-09T11:48:26;38.28;;;27.30;;
15451;SDS011;7827;53.594;9.938;2023-04-09T11:50:56;38.97;;;26.70;;
15451;SDS011;7827;53.594;9.938;2023-04-09T11:53:28;37.55;;;26.65;;
15451;SDS011;7827;53.594;9.938;2023-04-09T11:55:57;37.50;;;27.33;;
15451;SDS011;7827;53.594;9.938;2023-04-09T11:58:27;38.17;;;27.13;;
15451;SDS011;7827;53.594;9.938;2023-04-09T12:00:56;40.40;;;28.50;;
15451;SDS011;7827;53.594;9.938;2023-04-09T12:03:29;41.83;;;28.63;;
15451;SDS011;7827;53.594;9.938;2023-04-09T12:06:01;44.08;;;29.75;;
15451;SDS011;7827;53.594;9.938;2023-04-09T12:08:32;36.35;;;24.98;;
15451;SDS011;7827;53.594;9.938;2023-04-09T12:11:09;46.38;;;31.17;;
15451;SDS011;7827;53.594;9.938;2023-04-09T12:13:39;47.97;;;33.63;;
15451;SDS011;7827;53.594;9.938;2023-04-09T12:16:10;58.63;;;39.78;;
15451;SDS011;7827;53.594;9.938;2023-04-09T12:18:39;53.33;;;38.63;;
15451;SDS011;7827;53.594;9.938;2023-04-09T12:21:09;54.00;;;37.35;;
15451;SDS011;7827;53.594;9.938;2023-04-09T12:23:38;54.00;;;35.65;;
15451;SDS011;7827;53.594;9.938;2023-04-09T12:26:06;55.80;;;35.55;;
15451;SDS011;7827;53.594;9.938;2023-04-09T12:28:34;53.20;;;36.15;;
15451;SDS011;7827;53.594;9.938;2023-04-09T12:31:03;55.03;;;37.25;;
15451;SDS011;7827;53.594;9.938;2023-04-09T12:33:31;49.78;;;32.95;;
15451;SDS011;7827;53.594;9.938;2023-04-09T12:35:59;48.47;;;34.72;;
15451;SDS011;7827;53.594;9.938;2023-04-09T12:38:29;51.42;;;34.78;;
15451;SDS011;7827;53.594;9.938;2023-04-09T12:40:58;51.58;;;34.53;;
15451;SDS011;7827;53.594;9.938;2023-04-09T12:43:26;46.40;;;33.20;;
15451;SDS011;7827;53.594;9.938;2023-04-09T12:45:54;50.85;;;36.50;;
15451;SDS011;7827;53.594;9.938;2023-04-09T12:48:23;50.47;;;36.75;;
15451;SDS011;7827;53.594;9.938;2023-04-09T12:50:52;53.30;;;37.92;;
15451;SDS011;7827;53.594;9.938;2023-04-09T12:53:20;54.65;;;35.90;;
15451;SDS011;7827;53.594;9.938;2023-04-09T12:55:50;51.03;;;35.80;;
15451;SDS011;7827;53.594;9.938;2023-04-09T12:58:18;48.70;;;35.72;;
15451;SDS011;7827;53.594;9.938;2023-04-09T13:00:47;46.72;;;34.05;;
15451;SDS011;7827;53.594;9.938;2023-04-09T13:03:15;46.72;;;32.83;;
15451;SDS011;7827;53.594;9.938;2023-04-09T13:05:44;47.13;;;32.63;;
15451;SDS011;7827;53.594;9.938;2023-04-09T13:08:12;39.95;;;27.13;;
15451;SDS011;7827;53.594;9.938;2023-04-09T13:10:41;40.53;;;28.52;;
15451;SDS011;7827;53.594;9.938;2023-04-09T13:13:11;38.13;;;27.25;;
15451;SDS011;7827;53.594;9.938;2023-04-09T13:15:40;38.72;;;27.85;;
15451;SDS011;7827;53.594;9.938;2023-04-09T13:18:10;34.88;;;25.23;;
15451;SDS011;7827;53.594;9.938;2023-04-09T13:20:39;39.25;;;28.13;;
15451;SDS011;7827;53.594;9.938;2023-04-09T13:23:07;33.97;;;25.85;;
15451;SDS011;7827;53.594;9.938;2023-04-09T13:25:35;29.45;;;22.25;;
15451;SDS011;7827;53.594;9.938;2023-04-09T13:28:04;38.10;;;25.50;;
15451;SDS011;7827;53.594;9.938;2023-04-09T13:30:33;41.95;;;29.70;;
15451;SDS011;7827;53.594;9.938;2023-04-09T13:33:02;37.90;;;27.52;;
15451;SDS011;7827;53.594;9.938;2023-04-09T13:35:30;38.00;;;27.67;;
15451;SDS011;7827;53.594;9.938;2023-04-09T13:37:58;38.90;;;27.95;;
15451;SDS011;7827;53.594;9.938;2023-04-09T13:40:27;41.17;;;27.75;;
15451;SDS011;7827;53.594;9.938;2023-04-09T13:42:55;34.72;;;25.45;;
15451;SDS011;7827;53.594;9.938;2023-04-09T13:45:24;38.65;;;28.38;;
15451;SDS011;7827;53.594;9.938;2023-04-09T13:47:53;41.72;;;28.27;;
15451;SDS011;7827;53.594;9.938;2023-04-09T13:50:21;43.78;;;31.75;;
15451;SDS011;7827;53.594;9.938;2023-04-09T13:52:50;37.95;;;30.30;;
15451;SDS011;7827;53.594;9.938;2023-04-09T13:55:18;43.28;;;30.92;;
15451;SDS011;7827;53.594;9.938;2023-04-09T13:57:46;37.45;;;27.65;;
15451;SDS011;7827;53.594;9.938;2023-04-09T14:00:15;36.97;;;27.10;;
15451;SDS011;7827;53.594;9.938;2023-04-09T14:02:45;35.75;;;27.08;;
15451;SDS011;7827;53.594;9.938;2023-04-09T14:05:15;35.20;;;25.42;;
15451;SDS011;7827;53.594;9.938;2023-04-09T14:07:43;36.40;;;26.70;;
15451;SDS011;7827;53.594;9.938;2023-04-09T14:10:11;32.05;;;23.25;;
15451;SDS011;7827;53.594;9.938;2023-04-09T14:12:39;32.72;;;23.15;;
15451;SDS011;7827;53.594;9.938;2023-04-09T14:15:08;33.30;;;24.25;;
15451;SDS011;7827;53.594;9.938;2023-04-09T14:17:38;37.92;;;29.70;;
15451;SDS011;7827;53.594;9.938;2023-04-09T14:20:07;38.35;;;26.90;;
15451;SDS011;7827;53.594;9.938;2023-04-09T14:22:37;32.22;;;24.38;;
15451;SDS011;7827;53.594;9.938;2023-04-09T14:25:07;36.42;;;27.02;;
15451;SDS011;7827;53.594;9.938;2023-04-09T14:27:36;37.47;;;27.52;;
15451;SDS011;7827;53.594;9.938;2023-04-09T14:30:04;41.30;;;29.92;;
15451;SDS011;7827;53.594;9.938;2023-04-09T14:32:37;38.85;;;28.27;;
15451;SDS011;7827;53.594;9.938;2023-04-09T14:35:06;36.22;;;25.85;;
15451;SDS011;7827;53.594;9.938;2023-04-09T14:37:37;31.70;;;23.70;;
15451;SDS011;7827;53.594;9.938;2023-04-09T14:40:07;33.90;;;23.73;;
15451;SDS011;7827;53.594;9.938;2023-04-09T14:42:35;26.48;;;19.75;;
15451;SDS011;7827;53.594;9.938;2023-04-09T14:45:04;26.77;;;19.85;;
15451;SDS011;7827;53.594;9.938;2023-04-09T14:47:33;33.20;;;22.40;;
15451;SDS011;7827;53.594;9.938;2023-04-09T14:50:01;30.95;;;21.75;;
15451;SDS011;7827;53.594;9.938;2023-04-09T14:52:30;28.67;;;21.23;;
15451;SDS011;7827;53.594;9.938;2023-04-09T14:55:00;29.48;;;19.55;;